sensor_id;sensor_type;location;lat;lon;timestamp;temperature;humidity
18339;DHT22;9295;44.484;11.240;2023-02-02T00:01:55;3.50;99.90
18339;DHT22;9295;44.484;11.240;2023-02-02T00:04:27;3.50;99.90
18339;DHT22;9295;44.484;11.240;2023-02-02T00:06:56;3.50;99.90
18339;DHT22;9295;44.484;11.240;2023-02-02T00:09:26;3.50;99.90
18339;DHT22;9295;44.484;11.240;2023-02-02T00:11:56;3.50;99.90
18339;DHT22;9295;44.484;11.240;2023-02-02T00:14:25;3.50;99.90
18339;DHT22;9295;44.484;11.240;2023-02-02T00:16:56;3.60;99.90
18339;DHT22;9295;44.484;11.240;2023-02-02T00:19:26;3.60;99.90
18339;DHT22;9295;44.484;11.240;2023-02-02T00:21:56;3.60;99.90
18339;DHT22;9295;44.484;11.240;2023-02-02T00:24:25;3.60;99.90
18339;DHT22;9295;44.484;11.240;2023-02-02T00:26:55;3.60;99.90
18339;DHT22;9295;44.484;11.240;2023-02-02T00:29:25;3.60;99.90
18339;DHT22;9295;44.484;11.240;2023-02-02T00:31:55;3.50;99.90
18339;DHT22;9295;44.484;11.240;2023-02-02T00:34:24;3.40;99.90
18339;DHT22;9295;44.484;11.240;2023-02-02T00:36:52;3.40;99.90
18339;DHT22;9295;44.484;11.240;2023-02-02T00:39:22;3.40;99.90
18339;DHT22;9295;44.484;11.240;2023-02-02T00:41:52;3.40;99.90
18339;DHT22;9295;44.484;11.240;2023-02-02T00:44:21;3.30;99.90
18339;DHT22;9295;44.484;11.240;2023-02-02T00:47:17;3.30;99.90
18339;DHT22;9295;44.484;11.240;2023-02-02T00:49:46;3.30;99.90
18339;DHT22;9295;44.484;11.240;2023-02-02T00:52:14;3.30;99.90
18339;DHT22;9295;44.484;11.240;2023-02-02T00:54:44;3.30;99.90
18339;DHT22;9295;44.484;11.240;2023-02-02T00:57:13;3.30;99.90
18339;DHT22;9295;44.484;11.240;2023-02-02T00:59:41;3.20;99.90
18339;DHT22;9295;44.484;11.240;2023-02-02T01:02:10;3.20;99.90
18339;DHT22;9295;44.484;11.240;2023-02-02T01:04:40;3.20;99.90
18339;DHT22;9295;44.484;11.240;2023-02-02T01:07:09;3.10;99.90
18339;DHT22;9295;44.484;11.240;2023-02-02T01:09:37;3.10;99.90
18339;DHT22;9295;44.484;11.240;2023-02-02T01:12:06;3.10;99.90
18339;DHT22;9295;44.484;11.240;2023-02-02T01:14:34;3.10;99.90
18339;DHT22;9295;44.484;11.240;2023-02-02T01:17:03;3.20;99.90
18339;DHT22;9295;44.484;11.240;2023-02-02T01:19:32;3.20;99.90
18339;DHT22;9295;44.484;11.240;2023-02-02T01:22:02;3.30;99.90
18339;DHT22;9295;44.484;11.240;2023-02-02T01:24:31;3.30;99.90
18339;DHT22;9295;44.484;11.240;2023-02-02T01:27:00;3.30;99.90
18339;DHT22;9295;44.484;11.240;2023-02-02T01:29:30;3.30;99.90
18339;DHT22;9295;44.484;11.240;2023-02-02T01:31:59;3.30;99.90
18339;DHT22;9295;44.484;11.240;2023-02-02T01:34:27;3.30;99.90
18339;DHT22;9295;44.484;11.240;2023-02-02T01:36:56;3.30;99.90
18339;DHT22;9295;44.484;11.240;2023-02-02T01:39:25;3.30;99.90
18339;DHT22;9295;44.484;11.240;2023-02-02T01:41:55;3.30;99.90
18339;DHT22;9295;44.484;11.240;2023-02-02T01:47:33;3.20;99.90
18339;DHT22;9295;44.484;11.240;2023-02-02T01:50:03;3.20;99.90
18339;DHT22;9295;44.484;11.240;2023-02-02T01:52:34;3.20;99.90
18339;DHT22;9295;44.484;11.240;2023-02-02T01:55:05;3.10;99.90
18339;DHT22;9295;44.484;11.240;2023-02-02T01:57:41;3.10;99.90
18339;DHT22;9295;44.484;11.240;2023-02-02T02:00:13;3.10;99.90
18339;DHT22;9295;44.484;11.240;2023-02-02T02:02:46;3.00;99.90
18339;DHT22;9295;44.484;11.240;2023-02-02T02:05:23;3.00;99.90
18339;DHT22;9295;44.484;11.240;2023-02-02T02:07:55;2.90;99.90
18339;DHT22;9295;44.484;11.240;2023-02-02T02:10:27;2.90;99.90
18339;DHT22;9295;44.484;11.240;2023-02-02T02:12:56;2.90;99.90
18339;DHT22;9295;44.484;11.240;2023-02-02T02:15:27;2.90;99.90
18339;DHT22;9295;44.484;11.240;2023-02-02T02:18:24;2.90;99.90
18339;DHT22;9295;44.484;11.240;2023-02-02T02:21:29;2.80;99.90
18339;DHT22;9295;44.484;11.240;2023-02-02T02:25:02;2.80;99.90
18339;DHT22;9295;44.484;11.240;2023-02-02T02:31:17;2.90;99.90
18339;DHT22;9295;44.484;11.240;2023-02-02T02:33:55;2.90;99.90
18339;DHT22;9295;44.484;11.240;2023-02-02T02:36:32;2.90;99.90
18339;DHT22;9295;44.484;11.240;2023-02-02T02:39:08;2.90;99.90
18339;DHT22;9295;44.484;11.240;2023-02-02T02:41:45;2.90;99.90
18339;DHT22;9295;44.484;11.240;2023-02-02T02:44:16;2.80;99.90
18339;DHT22;9295;44.484;11.240;2023-02-02T02:46:46;2.80;99.90
18339;DHT22;9295;44.484;11.240;2023-02-02T02:49:17;2.80;99.90
18339;DHT22;9295;44.484;11.240;2023-02-02T02:51:47;2.70;99.90
18339;DHT22;9295;44.484;11.240;2023-02-02T02:54:29;2.80;99.90
18339;DHT22;9295;44.484;11.240;2023-02-02T02:57:08;2.70;99.90
18339;DHT22;9295;44.484;11.240;2023-02-02T02:59:46;2.70;99.90
18339;DHT22;9295;44.484;11.240;2023-02-02T03:02:28;2.70;99.90
18339;DHT22;9295;44.484;11.240;2023-02-02T03:05:10;2.60;99.90
18339;DHT22;9295;44.484;11.240;2023-02-02T03:07:46;2.60;99.90
18339;DHT22;9295;44.484;11.240;2023-02-02T03:10:18;2.60;99.90
18339;DHT22;9295;44.484;11.240;2023-02-02T03:12:49;2.70;99.90
18339;DHT22;9295;44.484;11.240;2023-02-02T03:15:18;2.60;99.90
18339;DHT22;9295;44.484;11.240;2023-02-02T03:17:48;2.60;99.90
18339;DHT22;9295;44.484;11.240;2023-02-02T03:20:19;2.60;99.90
18339;DHT22;9295;44.484;11.240;2023-02-02T03:22:47;2.60;99.90
18339;DHT22;9295;44.484;11.240;2023-02-02T03:25:16;2.60;99.90
18339;DHT22;9295;44.484;11.240;2023-02-02T03:27:44;2.60;99.90
18339;DHT22;9295;44.484;11.240;2023-02-02T03:30:13;2.60;99.90
18339;DHT22;9295;44.484;11.240;2023-02-02T03:32:42;2.60;99.90
18339;DHT22;9295;44.484;11.240;2023-02-02T03:35:10;2.70;99.90
18339;DHT22;9295;44.484;11.240;2023-02-02T03:37:40;2.70;99.90
18339;DHT22;9295;44.484;11.240;2023-02-02T03:40:10;2.80;99.90
18339;DHT22;9295;44.484;11.240;2023-02-02T03:42:38;2.90;99.90
18339;DHT22;9295;44.484;11.240;2023-02-02T03:45:08;2.90;99.90
18339;DHT22;9295;44.484;11.240;2023-02-02T03:47:36;2.90;99.90
18339;DHT22;9295;44.484;11.240;2023-02-02T03:50:06;2.80;99.90
18339;DHT22;9295;44.484;11.240;2023-02-02T03:52:36;2.70;99.90
18339;DHT22;9295;44.484;11.240;2023-02-02T03:55:06;2.70;99.90
18339;DHT22;9295;44.484;11.240;2023-02-02T03:57:35;2.60;99.90
18339;DHT22;9295;44.484;11.240;2023-02-02T04:00:04;2.60;99.90
18339;DHT22;9295;44.484;11.240;2023-02-02T04:02:38;2.60;99.90
18339;DHT22;9295;44.484;11.240;2023-02-02T04:05:07;2.50;99.90
18339;DHT22;9295;44.484;11.240;2023-02-02T04:07:35;2.50;99.90
18339;DHT22;9295;44.484;11.240;2023-02-02T04:10:06;2.60;99.90
18339;DHT22;9295;44.484;11.240;2023-02-02T04:12:34;2.60;99.90
18339;DHT22;9295;44.484;11.240;2023-02-02T04:15:04;2.60;99.90
18339;DHT22;9295;44.484;11.240;2023-02-02T04:17:32;2.60;99.90
18339;DHT22;9295;44.484;11.240;2023-02-02T04:20:01;2.50;99.90
18339;DHT22;9295;44.484;11.240;2023-02-02T04:22:30;2.60;99.90
18339;DHT22;9295;44.484;11.240;2023-02-02T04:24:58;2.60;99.90
18339;DHT22;9295;44.484;11.240;2023-02-02T04:27:28;2.60;99.90
18339;DHT22;9295;44.484;11.240;2023-02-02T04:30:00;2.70;99.90
18339;DHT22;9295;44.484;11.240;2023-02-02T04:32:28;2.70;99.90
18339;DHT22;9295;44.484;11.240;2023-02-02T04:34:57;2.80;99.90
18339;DHT22;9295;44.484;11.240;2023-02-02T04:37:25;2.80;99.90
18339;DHT22;9295;44.484;11.240;2023-02-02T04:39:54;2.70;99.90
18339;DHT22;9295;44.484;11.240;2023-02-02T04:42:22;2.70;99.90
18339;DHT22;9295;44.484;11.240;2023-02-02T04:44:52;2.60;99.90
18339;DHT22;9295;44.484;11.240;2023-02-02T04:47:20;2.50;99.90
18339;DHT22;9295;44.484;11.240;2023-02-02T04:49:49;2.40;99.90
18339;DHT22;9295;44.484;11.240;2023-02-02T04:52:17;2.40;99.90
18339;DHT22;9295;44.484;11.240;2023-02-02T04:54:46;2.50;99.90
18339;DHT22;9295;44.484;11.240;2023-02-02T04:57:14;2.40;99.90
18339;DHT22;9295;44.484;11.240;2023-02-02T04:59:43;2.40;99.90
18339;DHT22;9295;44.484;11.240;2023-02-02T05:02:13;2.50;99.90
18339;DHT22;9295;44.484;11.240;2023-02-02T05:04:42;2.50;99.90
18339;DHT22;9295;44.484;11.240;2023-02-02T05:07:10;2.50;99.90
18339;DHT22;9295;44.484;11.240;2023-02-02T05:09:39;2.40;99.90
18339;DHT22;9295;44.484;11.240;2023-02-02T05:12:07;2.30;99.90
18339;DHT22;9295;44.484;11.240;2023-02-02T05:14:36;2.30;99.90
18339;DHT22;9295;44.484;11.240;2023-02-02T05:17:04;2.30;99.90
18339;DHT22;9295;44.484;11.240;2023-02-02T05:19:34;2.30;99.90
18339;DHT22;9295;44.484;11.240;2023-02-02T05:22:03;2.20;99.90
18339;DHT22;9295;44.484;11.240;2023-02-02T05:24:31;2.20;99.90
18339;DHT22;9295;44.484;11.240;2023-02-02T05:27:00;2.20;99.90
18339;DHT22;9295;44.484;11.240;2023-02-02T05:29:29;2.20;99.90
18339;DHT22;9295;44.484;11.240;2023-02-02T05:31:57;2.20;99.90
18339;DHT22;9295;44.484;11.240;2023-02-02T05:34:26;2.20;99.90
18339;DHT22;9295;44.484;11.240;2023-02-02T05:36:56;2.20;99.90
18339;DHT22;9295;44.484;11.240;2023-02-02T05:39:25;2.30;99.90
18339;DHT22;9295;44.484;11.240;2023-02-02T05:41:54;2.50;99.90
18339;DHT22;9295;44.484;11.240;2023-02-02T05:44:22;2.60;99.90
18339;DHT22;9295;44.484;11.240;2023-02-02T05:46:51;2.60;99.90
18339;DHT22;9295;44.484;11.240;2023-02-02T05:49:19;2.60;99.90
18339;DHT22;9295;44.484;11.240;2023-02-02T05:51:50;2.50;99.90
18339;DHT22;9295;44.484;11.240;2023-02-02T05:54:20;2.50;99.90
18339;DHT22;9295;44.484;11.240;2023-02-02T05:56:50;2.40;99.90
18339;DHT22;9295;44.484;11.240;2023-02-02T05:59:21;2.40;99.90
18339;DHT22;9295;44.484;11.240;2023-02-02T06:01:50;2.40;99.90
18339;DHT22;9295;44.484;11.240;2023-02-02T06:04:18;2.40;99.90
18339;DHT22;9295;44.484;11.240;2023-02-02T06:06:47;2.40;99.90
18339;DHT22;9295;44.484;11.240;2023-02-02T06:09:15;2.40;99.90
18339;DHT22;9295;44.484;11.240;2023-02-02T06:11:45;2.40;99.90
18339;DHT22;9295;44.484;11.240;2023-02-02T06:14:14;2.40;99.90
18339;DHT22;9295;44.484;11.240;2023-02-02T06:16:43;2.40;99.90
18339;DHT22;9295;44.484;11.240;2023-02-02T06:19:11;2.30;99.90
18339;DHT22;9295;44.484;11.240;2023-02-02T06:21:40;2.20;99.90
18339;DHT22;9295;44.484;11.240;2023-02-02T06:24:08;2.20;99.90
18339;DHT22;9295;44.484;11.240;2023-02-02T06:26:37;2.10;99.90
18339;DHT22;9295;44.484;11.240;2023-02-02T06:29:11;2.00;99.90
18339;DHT22;9295;44.484;11.240;2023-02-02T06:31:40;2.00;99.90
18339;DHT22;9295;44.484;11.240;2023-02-02T06:34:10;1.90;99.90
18339;DHT22;9295;44.484;11.240;2023-02-02T06:36:40;1.90;99.90
18339;DHT22;9295;44.484;11.240;2023-02-02T06:39:09;2.00;99.90
18339;DHT22;9295;44.484;11.240;2023-02-02T06:41:38;2.10;99.90
18339;DHT22;9295;44.484;11.240;2023-02-02T06:44:08;2.10;99.90
18339;DHT22;9295;44.484;11.240;2023-02-02T06:46:37;2.20;99.90
18339;DHT22;9295;44.484;11.240;2023-02-02T06:49:05;2.40;99.90
18339;DHT22;9295;44.484;11.240;2023-02-02T06:51:35;2.50;99.90
18339;DHT22;9295;44.484;11.240;2023-02-02T06:54:03;2.60;99.90
18339;DHT22;9295;44.484;11.240;2023-02-02T06:56:32;2.70;99.90
18339;DHT22;9295;44.484;11.240;2023-02-02T06:59:00;2.70;99.90
18339;DHT22;9295;44.484;11.240;2023-02-02T07:01:31;2.80;99.90
18339;DHT22;9295;44.484;11.240;2023-02-02T07:03:59;2.80;99.90
18339;DHT22;9295;44.484;11.240;2023-02-02T07:06:28;2.80;99.90
18339;DHT22;9295;44.484;11.240;2023-02-02T07:08:57;2.80;99.90
18339;DHT22;9295;44.484;11.240;2023-02-02T07:11:30;2.90;99.90
18339;DHT22;9295;44.484;11.240;2023-02-02T07:14:02;3.00;99.90
18339;DHT22;9295;44.484;11.240;2023-02-02T07:16:32;3.10;99.90
18339;DHT22;9295;44.484;11.240;2023-02-02T07:19:01;3.20;99.90
18339;DHT22;9295;44.484;11.240;2023-02-02T07:21:30;3.40;99.90
18339;DHT22;9295;44.484;11.240;2023-02-02T07:24:04;4.00;99.90
18339;DHT22;9295;44.484;11.240;2023-02-02T07:26:36;4.70;99.90
18339;DHT22;9295;44.484;11.240;2023-02-02T07:29:05;5.50;99.90
18339;DHT22;9295;44.484;11.240;2023-02-02T07:31:35;6.20;99.90
18339;DHT22;9295;44.484;11.240;2023-02-02T07:34:04;7.10;99.90
18339;DHT22;9295;44.484;11.240;2023-02-02T07:36:33;9.00;99.90
18339;DHT22;9295;44.484;11.240;2023-02-02T07:39:03;10.70;99.90
18339;DHT22;9295;44.484;11.240;2023-02-02T07:41:33;11.60;99.90
18339;DHT22;9295;44.484;11.240;2023-02-02T07:44:03;12.90;99.90
18339;DHT22;9295;44.484;11.240;2023-02-02T07:46:34;14.10;99.90
18339;DHT22;9295;44.484;11.240;2023-02-02T07:49:04;14.70;99.90
18339;DHT22;9295;44.484;11.240;2023-02-02T07:51:33;15.60;99.90
18339;DHT22;9295;44.484;11.240;2023-02-02T07:54:06;16.50;99.90
18339;DHT22;9295;44.484;11.240;2023-02-02T07:56:35;17.00;99.90
18339;DHT22;9295;44.484;11.240;2023-02-02T07:59:04;17.70;98.60
18339;DHT22;9295;44.484;11.240;2023-02-02T08:01:34;17.90;99.30
18339;DHT22;9295;44.484;11.240;2023-02-02T08:04:03;18.40;97.90
18339;DHT22;9295;44.484;11.240;2023-02-02T08:06:33;18.70;94.10
18339;DHT22;9295;44.484;11.240;2023-02-02T08:09:03;18.90;92.70
18339;DHT22;9295;44.484;11.240;2023-02-02T08:11:34;18.90;92.30
18339;DHT22;9295;44.484;11.240;2023-02-02T08:14:04;18.90;90.10
18339;DHT22;9295;44.484;11.240;2023-02-02T08:16:34;18.60;85.40
18339;DHT22;9295;44.484;11.240;2023-02-02T08:19:03;17.60;83.70
18339;DHT22;9295;44.484;11.240;2023-02-02T08:21:32;16.40;78.40
18339;DHT22;9295;44.484;11.240;2023-02-02T08:24:01;15.10;79.90
18339;DHT22;9295;44.484;11.240;2023-02-02T08:26:31;13.90;84.60
18339;DHT22;9295;44.484;11.240;2023-02-02T08:29:05;13.00;87.30
18339;DHT22;9295;44.484;11.240;2023-02-02T08:31:37;12.10;87.50
18339;DHT22;9295;44.484;11.240;2023-02-02T08:34:08;11.60;90.30
18339;DHT22;9295;44.484;11.240;2023-02-02T08:36:37;11.30;90.70
18339;DHT22;9295;44.484;11.240;2023-02-02T08:39:07;11.20;90.20
18339;DHT22;9295;44.484;11.240;2023-02-02T08:41:36;11.10;93.70
18339;DHT22;9295;44.484;11.240;2023-02-02T08:44:05;11.00;93.10
18339;DHT22;9295;44.484;11.240;2023-02-02T08:46:39;10.90;93.50
18339;DHT22;9295;44.484;11.240;2023-02-02T08:49:09;10.90;93.70
18339;DHT22;9295;44.484;11.240;2023-02-02T08:51:38;10.90;94.70
18339;DHT22;9295;44.484;11.240;2023-02-02T08:54:07;11.00;95.30
18339;DHT22;9295;44.484;11.240;2023-02-02T08:56:35;11.10;95.20
18339;DHT22;9295;44.484;11.240;2023-02-02T08:59:04;11.20;94.30
18339;DHT22;9295;44.484;11.240;2023-02-02T09:01:34;11.20;94.80
18339;DHT22;9295;44.484;11.240;2023-02-02T09:04:06;11.20;95.10
18339;DHT22;9295;44.484;11.240;2023-02-02T09:06:37;11.30;95.20
18339;DHT22;9295;44.484;11.240;2023-02-02T09:09:08;11.40;94.80
18339;DHT22;9295;44.484;11.240;2023-02-02T09:11:38;11.40;94.80
18339;DHT22;9295;44.484;11.240;2023-02-02T09:14:07;11.50;95.70
18339;DHT22;9295;44.484;11.240;2023-02-02T09:16:36;11.60;95.30
18339;DHT22;9295;44.484;11.240;2023-02-02T09:19:06;11.70;96.30
18339;DHT22;9295;44.484;11.240;2023-02-02T09:21:35;11.90;96.50
18339;DHT22;9295;44.484;11.240;2023-02-02T09:24:08;12.00;96.00
18339;DHT22;9295;44.484;11.240;2023-02-02T09:26:55;12.00;95.60
18339;DHT22;9295;44.484;11.240;2023-02-02T09:29:24;12.20;96.70
18339;DHT22;9295;44.484;11.240;2023-02-02T09:31:52;12.20;96.80
18339;DHT22;9295;44.484;11.240;2023-02-02T09:34:22;12.40;96.80
18339;DHT22;9295;44.484;11.240;2023-02-02T09:36:51;12.50;97.30
18339;DHT22;9295;44.484;11.240;2023-02-02T09:39:20;12.60;97.60
18339;DHT22;9295;44.484;11.240;2023-02-02T09:41:58;12.70;97.10
18339;DHT22;9295;44.484;11.240;2023-02-02T09:44:55;12.80;97.00
18339;DHT22;9295;44.484;11.240;2023-02-02T09:47:29;12.80;97.70
18339;DHT22;9295;44.484;11.240;2023-02-02T09:50:04;12.80;97.90
18339;DHT22;9295;44.484;11.240;2023-02-02T09:52:39;12.80;98.30
18339;DHT22;9295;44.484;11.240;2023-02-02T09:55:12;12.80;97.90
18339;DHT22;9295;44.484;11.240;2023-02-02T09:57:46;12.80;98.60
18339;DHT22;9295;44.484;11.240;2023-02-02T10:00:24;12.80;99.50
18339;DHT22;9295;44.484;11.240;2023-02-02T10:02:58;12.80;99.10
18339;DHT22;9295;44.484;11.240;2023-02-02T10:05:41;12.80;98.60
18339;DHT22;9295;44.484;11.240;2023-02-02T10:08:17;12.90;97.90
18339;DHT22;9295;44.484;11.240;2023-02-02T10:11:04;13.00;96.90
18339;DHT22;9295;44.484;11.240;2023-02-02T10:13:37;13.10;97.10
18339;DHT22;9295;44.484;11.240;2023-02-02T10:16:14;13.10;96.70
18339;DHT22;9295;44.484;11.240;2023-02-02T10:18:48;13.10;96.40
18339;DHT22;9295;44.484;11.240;2023-02-02T10:21:25;13.20;95.20
18339;DHT22;9295;44.484;11.240;2023-02-02T10:23:56;13.30;93.90
18339;DHT22;9295;44.484;11.240;2023-02-02T10:26:35;13.40;93.20
18339;DHT22;9295;44.484;11.240;2023-02-02T10:29:14;13.50;92.20
18339;DHT22;9295;44.484;11.240;2023-02-02T10:31:49;13.60;92.80
18339;DHT22;9295;44.484;11.240;2023-02-02T10:34:23;13.70;92.90
18339;DHT22;9295;44.484;11.240;2023-02-02T10:37:01;13.70;91.90
18339;DHT22;9295;44.484;11.240;2023-02-02T10:39:49;13.80;90.20
18339;DHT22;9295;44.484;11.240;2023-02-02T10:42:27;13.90;90.00
18339;DHT22;9295;44.484;11.240;2023-02-02T10:45:00;13.90;90.50
18339;DHT22;9295;44.484;11.240;2023-02-02T10:47:32;13.90;90.20
18339;DHT22;9295;44.484;11.240;2023-02-02T10:50:14;13.90;90.20
18339;DHT22;9295;44.484;11.240;2023-02-02T10:52:47;13.90;89.20
18339;DHT22;9295;44.484;11.240;2023-02-02T10:55:24;14.00;89.70
18339;DHT22;9295;44.484;11.240;2023-02-02T10:58:05;14.00;86.30
18339;DHT22;9295;44.484;11.240;2023-02-02T11:00:39;14.00;86.10
18339;DHT22;9295;44.484;11.240;2023-02-02T11:03:11;14.00;86.30
18339;DHT22;9295;44.484;11.240;2023-02-02T11:05:40;14.00;86.30
18339;DHT22;9295;44.484;11.240;2023-02-02T11:08:31;14.00;85.40
18339;DHT22;9295;44.484;11.240;2023-02-02T11:11:09;14.10;85.20
18339;DHT22;9295;44.484;11.240;2023-02-02T11:13:41;14.10;85.00
18339;DHT22;9295;44.484;11.240;2023-02-02T11:16:26;14.20;84.70
18339;DHT22;9295;44.484;11.240;2023-02-02T11:19:22;14.20;84.50
18339;DHT22;9295;44.484;11.240;2023-02-02T11:21:52;14.30;84.10
18339;DHT22;9295;44.484;11.240;2023-02-02T11:24:38;14.30;82.40
18339;DHT22;9295;44.484;11.240;2023-02-02T11:27:12;14.30;81.90
18339;DHT22;9295;44.484;11.240;2023-02-02T11:29:44;14.30;83.20
18339;DHT22;9295;44.484;11.240;2023-02-02T11:32:19;14.40;83.10
18339;DHT22;9295;44.484;11.240;2023-02-02T11:35:12;14.40;82.30
18339;DHT22;9295;44.484;11.240;2023-02-02T11:37:53;14.40;82.10
18339;DHT22;9295;44.484;11.240;2023-02-02T11:40:30;14.40;82.20
18339;DHT22;9295;44.484;11.240;2023-02-02T11:43:01;14.40;83.60
18339;DHT22;9295;44.484;11.240;2023-02-02T11:45:33;14.50;84.00
18339;DHT22;9295;44.484;11.240;2023-02-02T11:48:05;14.50;81.60
18339;DHT22;9295;44.484;11.240;2023-02-02T11:50:35;14.60;81.90
18339;DHT22;9295;44.484;11.240;2023-02-02T11:53:03;14.70;80.20
18339;DHT22;9295;44.484;11.240;2023-02-02T11:55:34;14.70;77.00
18339;DHT22;9295;44.484;11.240;2023-02-02T11:58:19;14.80;76.50
18339;DHT22;9295;44.484;11.240;2023-02-02T12:00:53;14.80;76.00
18339;DHT22;9295;44.484;11.240;2023-02-02T12:03:25;14.80;76.10
18339;DHT22;9295;44.484;11.240;2023-02-02T12:05:54;14.80;76.40
18339;DHT22;9295;44.484;11.240;2023-02-02T12:08:23;14.70;76.10
18339;DHT22;9295;44.484;11.240;2023-02-02T12:10:57;14.60;76.80
18339;DHT22;9295;44.484;11.240;2023-02-02T12:13:45;14.60;76.40
18339;DHT22;9295;44.484;11.240;2023-02-02T12:16:38;14.60;75.10
18339;DHT22;9295;44.484;11.240;2023-02-02T12:22:07;14.90;75.70
18339;DHT22;9295;44.484;11.240;2023-02-02T12:24:46;15.00;72.00
18339;DHT22;9295;44.484;11.240;2023-02-02T12:27:27;15.10;71.70
18339;DHT22;9295;44.484;11.240;2023-02-02T12:30:17;15.20;69.90
18339;DHT22;9295;44.484;11.240;2023-02-02T12:33:03;15.20;69.40
18339;DHT22;9295;44.484;11.240;2023-02-02T12:35:47;15.30;69.70
18339;DHT22;9295;44.484;11.240;2023-02-02T12:38:29;15.30;68.70
18339;DHT22;9295;44.484;11.240;2023-02-02T12:41:12;15.30;67.10
18339;DHT22;9295;44.484;11.240;2023-02-02T12:43:49;15.40;68.50
18339;DHT22;9295;44.484;11.240;2023-02-02T12:46:28;15.40;67.70
18339;DHT22;9295;44.484;11.240;2023-02-02T12:49:12;15.40;68.60
18339;DHT22;9295;44.484;11.240;2023-02-02T12:52:00;15.40;68.90
18339;DHT22;9295;44.484;11.240;2023-02-02T12:54:53;15.40;69.10
18339;DHT22;9295;44.484;11.240;2023-02-02T12:57:34;15.50;68.90
18339;DHT22;9295;44.484;11.240;2023-02-02T13:00:36;15.60;68.70
18339;DHT22;9295;44.484;11.240;2023-02-02T13:03:20;15.60;68.10
18339;DHT22;9295;44.484;11.240;2023-02-02T13:05:58;15.60;69.50
18339;DHT22;9295;44.484;11.240;2023-02-02T13:08:31;15.60;69.10
18339;DHT22;9295;44.484;11.240;2023-02-02T13:11:05;15.70;69.40
18339;DHT22;9295;44.484;11.240;2023-02-02T13:13:58;15.70;68.40
18339;DHT22;9295;44.484;11.240;2023-02-02T13:16:30;15.60;70.00
18339;DHT22;9295;44.484;11.240;2023-02-02T13:19:02;15.60;70.20
18339;DHT22;9295;44.484;11.240;2023-02-02T13:21:32;15.70;69.00
18339;DHT22;9295;44.484;11.240;2023-02-02T13:24:02;15.80;67.70
18339;DHT22;9295;44.484;11.240;2023-02-02T13:26:35;15.80;67.30
18339;DHT22;9295;44.484;11.240;2023-02-02T13:29:07;15.80;68.90
18339;DHT22;9295;44.484;11.240;2023-02-02T13:31:44;15.80;68.40
18339;DHT22;9295;44.484;11.240;2023-02-02T13:34:19;15.80;68.80
18339;DHT22;9295;44.484;11.240;2023-02-02T13:36:53;15.80;66.70
18339;DHT22;9295;44.484;11.240;2023-02-02T13:39:32;15.80;66.60
18339;DHT22;9295;44.484;11.240;2023-02-02T13:42:04;15.90;65.60
18339;DHT22;9295;44.484;11.240;2023-02-02T13:44:47;15.90;65.50
18339;DHT22;9295;44.484;11.240;2023-02-02T13:47:22;15.90;64.30
18339;DHT22;9295;44.484;11.240;2023-02-02T13:49:59;15.90;63.60
18339;DHT22;9295;44.484;11.240;2023-02-02T13:55:48;16.00;63.20
18339;DHT22;9295;44.484;11.240;2023-02-02T13:58:43;16.00;62.30
18339;DHT22;9295;44.484;11.240;2023-02-02T14:01:17;16.00;62.40
18339;DHT22;9295;44.484;11.240;2023-02-02T14:03:53;16.00;62.30
18339;DHT22;9295;44.484;11.240;2023-02-02T14:06:24;16.00;61.50
18339;DHT22;9295;44.484;11.240;2023-02-02T14:08:55;16.10;62.10
18339;DHT22;9295;44.484;11.240;2023-02-02T14:11:27;16.10;63.10
18339;DHT22;9295;44.484;11.240;2023-02-02T14:13:58;16.10;63.50
18339;DHT22;9295;44.484;11.240;2023-02-02T14:16:51;16.10;63.50
18339;DHT22;9295;44.484;11.240;2023-02-02T14:19:48;16.10;63.60
18339;DHT22;9295;44.484;11.240;2023-02-02T14:22:41;16.00;63.90
18339;DHT22;9295;44.484;11.240;2023-02-02T14:25:45;16.10;63.40
18339;DHT22;9295;44.484;11.240;2023-02-02T14:28:42;16.20;63.20
18339;DHT22;9295;44.484;11.240;2023-02-02T14:31:40;16.10;63.30
18339;DHT22;9295;44.484;11.240;2023-02-02T14:34:26;16.00;63.90
18339;DHT22;9295;44.484;11.240;2023-02-02T14:37:20;15.90;63.80
18339;DHT22;9295;44.484;11.240;2023-02-02T14:39:58;16.00;63.80
18339;DHT22;9295;44.484;11.240;2023-02-02T14:42:49;16.10;63.50
18339;DHT22;9295;44.484;11.240;2023-02-02T14:45:41;16.10;63.40
18339;DHT22;9295;44.484;11.240;2023-02-02T14:48:13;16.10;64.00
18339;DHT22;9295;44.484;11.240;2023-02-02T14:50:48;16.20;64.00
18339;DHT22;9295;44.484;11.240;2023-02-02T14:53:25;16.20;64.00
18339;DHT22;9295;44.484;11.240;2023-02-02T14:55:59;16.10;63.70
18339;DHT22;9295;44.484;11.240;2023-02-02T14:58:30;16.10;63.70
18339;DHT22;9295;44.484;11.240;2023-02-02T15:01:06;16.10;63.40
18339;DHT22;9295;44.484;11.240;2023-02-02T15:03:45;16.10;63.50
18339;DHT22;9295;44.484;11.240;2023-02-02T15:06:30;16.00;63.70
18339;DHT22;9295;44.484;11.240;2023-02-02T15:09:38;15.90;64.30
18339;DHT22;9295;44.484;11.240;2023-02-02T15:12:34;15.80;65.00
18339;DHT22;9295;44.484;11.240;2023-02-02T15:15:15;15.70;65.20
18339;DHT22;9295;44.484;11.240;2023-02-02T15:18:03;15.50;66.00
18339;DHT22;9295;44.484;11.240;2023-02-02T15:20:38;15.30;67.00
18339;DHT22;9295;44.484;11.240;2023-02-02T15:23:20;15.20;67.40
18339;DHT22;9295;44.484;11.240;2023-02-02T15:25:55;15.30;69.40
18339;DHT22;9295;44.484;11.240;2023-02-02T15:28:31;15.20;68.60
18339;DHT22;9295;44.484;11.240;2023-02-02T15:31:10;15.10;67.90
18339;DHT22;9295;44.484;11.240;2023-02-02T15:33:41;15.10;67.80
18339;DHT22;9295;44.484;11.240;2023-02-02T15:36:12;15.10;68.40
18339;DHT22;9295;44.484;11.240;2023-02-02T15:38:44;15.00;69.40
18339;DHT22;9295;44.484;11.240;2023-02-02T15:41:18;14.90;69.40
18339;DHT22;9295;44.484;11.240;2023-02-02T15:43:48;14.80;70.00
18339;DHT22;9295;44.484;11.240;2023-02-02T15:46:20;14.40;70.60
18339;DHT22;9295;44.484;11.240;2023-02-02T15:49:13;14.10;70.70
18339;DHT22;9295;44.484;11.240;2023-02-02T15:52:07;14.00;73.30
18339;DHT22;9295;44.484;11.240;2023-02-02T15:54:37;13.90;72.80
18339;DHT22;9295;44.484;11.240;2023-02-02T15:57:25;13.90;73.40
18339;DHT22;9295;44.484;11.240;2023-02-02T15:59:53;13.70;74.10
18339;DHT22;9295;44.484;11.240;2023-02-02T16:02:27;13.60;75.40
18339;DHT22;9295;44.484;11.240;2023-02-02T16:04:58;13.20;77.80
18339;DHT22;9295;44.484;11.240;2023-02-02T16:07:28;12.90;78.60
18339;DHT22;9295;44.484;11.240;2023-02-02T16:10:02;12.80;79.30
18339;DHT22;9295;44.484;11.240;2023-02-02T16:12:33;12.70;80.00
18339;DHT22;9295;44.484;11.240;2023-02-02T16:15:02;12.60;81.60
18339;DHT22;9295;44.484;11.240;2023-02-02T16:17:32;12.40;83.70
18339;DHT22;9295;44.484;11.240;2023-02-02T16:20:03;12.00;84.40
18339;DHT22;9295;44.484;11.240;2023-02-02T16:22:35;11.70;85.30
18339;DHT22;9295;44.484;11.240;2023-02-02T16:25:07;11.60;86.70
18339;DHT22;9295;44.484;11.240;2023-02-02T16:27:40;11.70;86.00
18339;DHT22;9295;44.484;11.240;2023-02-02T16:30:22;11.80;86.10
18339;DHT22;9295;44.484;11.240;2023-02-02T16:32:52;11.80;87.20